createdAt,value
2018-09-29T00:00:54.259Z,100084.63
2018-09-29T00:03:22.627Z,100082.84
2018-09-29T00:05:50.968Z,100078.23
2018-09-29T00:08:19.323Z,100077.48
2018-09-29T00:10:47.703Z,100080.49
2018-09-29T00:13:16.063Z,100071.93
2018-09-29T00:15:44.427Z,100075.00
2018-09-29T00:18:12.787Z,100084.15
2018-09-29T00:20:41.216Z,100089.92
2018-09-29T00:23:09.604Z,100089.37
2018-09-29T00:25:37.947Z,100084.00
2018-09-29T00:28:06.275Z,100089.00
2018-09-29T00:30:34.623Z,100089.38
2018-09-29T00:33:03.276Z,100084.86
2018-09-29T00:35:31.611Z,100087.27
2018-09-29T00:37:59.955Z,100088.99
2018-09-29T00:40:28.362Z,100086.23
2018-09-29T00:42:56.719Z,100095.00
2018-09-29T00:45:25.040Z,100095.61
2018-09-29T00:47:53.392Z,100098.55
2018-09-29T00:50:21.727Z,100108.48
2018-09-29T00:52:50.099Z,100101.51
2018-09-29T00:55:18.449Z,100100.44
2018-09-29T00:57:46.810Z,100096.55
2018-09-29T01:00:15.206Z,100100.34
2018-09-29T01:02:43.567Z,100100.58
2018-09-29T01:05:11.892Z,100102.31
2018-09-29T01:07:40.266Z,100104.39
2018-09-29T01:10:08.731Z,100102.84
2018-09-29T01:12:37.116Z,100096.34
2018-09-29T01:15:05.507Z,100091.53
2018-09-29T01:17:33.868Z,100090.66
2018-09-29T01:20:02.233Z,100099.69
2018-09-29T01:22:30.809Z,100091.63
2018-09-29T01:24:59.172Z,100083.09
2018-09-29T01:27:27.671Z,100087.34
2018-09-29T01:29:56.265Z,100091.27
2018-09-29T01:32:24.670Z,100086.29
2018-09-29T01:34:53.150Z,100094.13
2018-09-29T01:37:21.607Z,100088.13
2018-09-29T01:39:50.037Z,100086.52
2018-09-29T01:42:18.546Z,100084.77
2018-09-29T01:44:46.895Z,100086.52
2018-09-29T01:47:15.221Z,100079.98
2018-09-29T01:49:43.626Z,100082.30
2018-09-29T01:52:12.027Z,100074.75
2018-09-29T01:54:40.406Z,100072.03
2018-09-29T01:57:08.890Z,100068.73
2018-09-29T01:59:37.252Z,100072.97
2018-09-29T02:02:05.631Z,100076.09
2018-09-29T02:04:33.978Z,100070.34
2018-09-29T02:07:02.432Z,100078.81
2018-09-29T02:09:30.795Z,100076.66
2018-09-29T02:11:59.373Z,100078.83
2018-09-29T02:14:27.763Z,100088.06
2018-09-29T02:16:56.103Z,100088.95
2018-09-29T02:19:24.466Z,100094.92
2018-09-29T02:21:52.823Z,100092.45
2018-09-29T02:24:21.184Z,100105.66
2018-09-29T02:26:49.524Z,100105.06
2018-09-29T02:29:17.923Z,100108.81
2018-09-29T02:31:46.397Z,100107.52
2018-09-29T02:34:14.802Z,100112.88
2018-09-29T02:36:43.167Z,100109.05
2018-09-29T02:39:12.659Z,100099.66
2018-09-29T02:41:40.991Z,100092.31
2018-09-29T02:44:09.686Z,100098.19
2018-09-29T02:46:38.212Z,100100.95
2018-09-29T02:49:06.703Z,100104.20
2018-09-29T02:51:35.052Z,100102.89
2018-09-29T02:54:03.484Z,100103.34
2018-09-29T02:56:31.830Z,100100.43
2018-09-29T02:59:00.155Z,100103.27
2018-09-29T03:01:28.547Z,100110.03
2018-09-29T03:03:56.887Z,100102.09
2018-09-29T03:06:25.270Z,100106.83
2018-09-29T03:08:53.633Z,100105.14
2018-09-29T03:11:22.104Z,100108.52
2018-09-29T03:13:50.678Z,100102.41
2018-09-29T03:16:19.184Z,100109.94
2018-09-29T03:18:47.600Z,100101.29
2018-09-29T03:21:16.117Z,100105.98
2018-09-29T03:23:44.449Z,100098.91
2018-09-29T03:26:12.847Z,100101.31
2018-09-29T03:28:41.162Z,100106.13
2018-09-29T03:31:09.672Z,100103.22
2018-09-29T03:33:38.051Z,100099.64
2018-09-29T03:36:06.749Z,100100.33
2018-09-29T03:38:35.521Z,100091.09
2018-09-29T03:41:03.872Z,100088.13
2018-09-29T03:43:32.195Z,100091.25
2018-09-29T03:46:00.639Z,100091.48
2018-09-29T03:48:28.978Z,100092.05
2018-09-29T03:50:57.355Z,100088.68
2018-09-29T03:53:25.775Z,100097.00
2018-09-29T03:55:54.135Z,100099.94
2018-09-29T03:58:22.478Z,100096.05
2018-09-29T04:00:50.846Z,100108.05
2018-09-29T04:03:19.489Z,100102.45
2018-09-29T04:05:47.873Z,100102.73
2018-09-29T04:08:16.354Z,100101.55
2018-09-29T04:10:44.714Z,100107.06
2018-09-29T04:13:13.146Z,100103.59
2018-09-29T04:15:41.413Z,100109.84
2018-09-29T04:18:09.718Z,100107.02
2018-09-29T04:20:38.095Z,100111.23
2018-09-29T04:23:06.548Z,100102.40
2018-09-29T04:25:34.805Z,100107.63
2018-09-29T04:28:03.136Z,100107.48
2018-09-29T04:30:31.397Z,100114.56
2018-09-29T04:32:59.693Z,100120.94
2018-09-29T04:35:28.026Z,100124.25
2018-09-29T04:37:56.310Z,100126.11
2018-09-29T04:40:24.625Z,100123.53
2018-09-29T04:42:52.927Z,100124.05
2018-09-29T04:45:21.189Z,100131.75
2018-09-29T04:47:49.482Z,100137.83
2018-09-29T04:50:17.777Z,100131.84
2018-09-29T04:52:46.126Z,100130.92
2018-09-29T04:55:14.445Z,100130.84
2018-09-29T04:57:42.726Z,100122.86
2018-09-29T05:00:11.033Z,100134.15
2018-09-29T05:02:39.319Z,100141.20
2018-09-29T05:05:07.637Z,100144.17
2018-09-29T05:07:35.897Z,100139.09
2018-09-29T05:10:04.222Z,100141.91
2018-09-29T05:12:32.477Z,100139.09
2018-09-29T05:15:00.751Z,100144.55
2018-09-29T05:17:29.109Z,100141.97
2018-09-29T05:19:57.406Z,100144.64
2018-09-29T05:22:25.677Z,100143.45
2018-09-29T05:24:53.959Z,100150.00
2018-09-29T05:27:22.222Z,100144.78
2018-09-29T05:29:50.509Z,100150.72
2018-09-29T05:32:18.797Z,100152.90
2018-09-29T05:34:47.108Z,100160.62
2018-09-29T05:37:15.361Z,100147.76
2018-09-29T05:39:43.652Z,100153.77
2018-09-29T05:42:11.905Z,100150.12
2018-09-29T05:44:40.181Z,100159.75
2018-09-29T05:47:08.481Z,100153.25
2018-09-29T05:49:36.949Z,100157.09
2018-09-29T05:52:05.238Z,100149.88
2018-09-29T05:54:33.625Z,100152.61
2018-09-29T05:57:01.919Z,100154.05
2018-09-29T05:59:30.209Z,100150.95
2018-09-29T06:01:58.480Z,100150.09
2018-09-29T06:04:27.353Z,100152.73
2018-09-29T06:06:55.870Z,100157.16
2018-09-29T06:09:24.154Z,100157.90
2018-09-29T06:11:52.486Z,100164.55
2018-09-29T06:14:20.788Z,100167.85
2018-09-29T06:16:49.046Z,100166.91
2018-09-29T06:19:17.339Z,100170.80
2018-09-29T06:21:45.615Z,100169.36
2018-09-29T06:24:13.915Z,100175.75
2018-09-29T06:26:42.179Z,100172.66
2018-09-29T06:29:10.476Z,100176.84
2018-09-29T06:31:38.763Z,100180.22
2018-09-29T06:34:07.062Z,100186.19
2018-09-29T06:36:35.482Z,100178.81
2018-09-29T06:39:04.234Z,100181.01
2018-09-29T06:41:32.582Z,100175.91
2018-09-29T06:44:00.870Z,100165.20
2018-09-29T06:46:29.998Z,100173.64
2018-09-29T06:48:58.289Z,100173.97
2018-09-29T06:51:26.666Z,100178.47
2018-09-29T06:53:54.936Z,100180.72
2018-09-29T06:56:23.223Z,100175.14
2018-09-29T06:58:51.529Z,100172.98
2018-09-29T07:01:19.819Z,100170.43
2018-09-29T07:03:48.097Z,100168.06
2018-09-29T07:06:16.396Z,100175.80
2018-09-29T07:08:44.661Z,100174.53
2018-09-29T07:11:13.448Z,100166.95
2018-09-29T07:13:41.748Z,100165.97
2018-09-29T07:16:10.066Z,100167.45
2018-09-29T07:18:38.350Z,100164.98
2018-09-29T07:21:06.672Z,100165.84
2018-09-29T07:23:34.991Z,100158.61
2018-09-29T07:26:03.314Z,100153.25
2018-09-29T07:28:31.630Z,100158.06
2018-09-29T07:30:59.956Z,100155.45
2018-09-29T07:33:28.469Z,100161.53
2018-09-29T07:35:56.604Z,100162.92
2018-09-29T07:38:24.886Z,100150.69
2018-09-29T07:40:53.264Z,100153.06
2018-09-29T07:43:21.672Z,100157.81
2018-09-29T07:46:13.123Z,100160.98
2018-09-29T07:50:05.998Z,100157.51
2018-09-29T07:52:34.350Z,100155.14
2018-09-29T07:55:02.906Z,100158.73
2018-09-29T07:57:31.253Z,100153.23
2018-09-29T07:59:59.573Z,100149.37
2018-09-29T08:02:27.942Z,100155.45
2018-09-29T08:04:56.894Z,100156.49
2018-09-29T08:07:25.262Z,100157.47
2018-09-29T08:09:53.624Z,100152.71
2018-09-29T08:12:23.022Z,100151.34
2018-09-29T08:14:51.480Z,100155.83
2018-09-29T08:17:20.100Z,100159.34
2018-09-29T08:20:16.846Z,100159.13
2018-09-29T08:22:49.607Z,100156.57
2018-09-29T08:25:18.262Z,100153.39
2018-09-29T08:27:46.615Z,100150.08
2018-09-29T08:33:41.079Z,100152.87
2018-09-29T08:36:14.969Z,100153.73
2018-09-29T08:38:43.750Z,100157.28
2018-09-29T08:41:12.844Z,100157.19
2018-09-29T08:43:41.991Z,100160.08
2018-09-29T08:46:16.078Z,100161.12
2018-09-29T08:48:52.738Z,100158.75
2018-09-29T08:51:26.218Z,100161.72
2018-09-29T08:53:58.364Z,100156.58
2018-09-29T08:56:37.969Z,100159.28
2018-09-29T09:00:42.930Z,100158.15
2018-09-29T09:03:17.141Z,100157.20
2018-09-29T09:05:52.321Z,100153.19
2018-09-29T09:08:23.809Z,100140.43
2018-09-29T09:11:10.511Z,100150.52
2018-09-29T09:13:46.344Z,100143.37
2018-09-29T09:16:21.065Z,100141.18
2018-09-29T09:18:59.430Z,100146.30
2018-09-29T09:21:33.986Z,100144.86
2018-09-29T09:24:18.201Z,100143.83
2018-09-29T09:26:55.484Z,100139.53
2018-09-29T09:29:47.400Z,100144.80
2018-09-29T09:32:29.153Z,100145.11
2018-09-29T09:35:13.426Z,100141.28
2018-09-29T09:37:58.942Z,100137.72
2018-09-29T09:40:33.316Z,100132.86
2018-09-29T09:43:10.152Z,100131.85
2018-09-29T09:45:40.319Z,100138.04
2018-09-29T09:48:38.851Z,100135.33
2018-09-29T09:51:28.416Z,100139.80
2018-09-29T09:54:08.293Z,100131.63
2018-09-29T09:56:50.081Z,100128.00
2018-09-29T09:59:31.657Z,100132.11
2018-09-29T10:02:12.758Z,100124.45
2018-09-29T10:04:47.130Z,100127.52
2018-09-29T10:07:28.356Z,100117.88
2018-09-29T10:10:07.066Z,100117.28
2018-09-29T10:12:47.388Z,100121.11
2018-09-29T10:15:28.184Z,100120.45
2018-09-29T10:18:07.761Z,100115.52
2018-09-29T10:20:46.700Z,100112.92
2018-09-29T10:23:26.405Z,100105.84
2018-09-29T10:26:03.000Z,100103.06
2018-09-29T10:28:37.250Z,100106.09
2018-09-29T10:31:11.450Z,100100.23
2018-09-29T10:33:44.783Z,100101.80
2018-09-29T10:36:25.716Z,100098.16
2018-09-29T10:39:01.098Z,100098.59
2018-09-29T10:41:38.754Z,100095.00
2018-09-29T10:44:20.993Z,100083.14
2018-09-29T10:47:09.500Z,100084.84
2018-09-29T10:49:56.762Z,100078.69
2018-09-29T10:52:38.753Z,100070.63
2018-09-29T10:55:17.046Z,100067.02
2018-09-29T10:58:10.514Z,100067.16
2018-09-29T11:01:00.256Z,100062.91
2018-09-29T11:03:41.780Z,100053.09
2018-09-29T11:06:11.112Z,100049.90
2018-09-29T11:08:39.519Z,100048.43
2018-09-29T11:11:07.961Z,100043.25
2018-09-29T11:13:36.336Z,100038.39
2018-09-29T11:16:04.728Z,100038.22
2018-09-29T11:18:33.130Z,100026.39
2018-09-29T11:21:01.693Z,100021.77
2018-09-29T11:23:29.994Z,100019.27
2018-09-29T11:25:58.401Z,100016.66
2018-09-29T11:28:27.087Z,100013.67
2018-09-29T11:30:55.445Z,100020.12
2018-09-29T11:33:24.862Z,100021.11
2018-09-29T11:35:53.242Z,100019.02
2018-09-29T11:38:21.640Z,100012.69
2018-09-29T11:40:50.577Z,100018.55
2018-09-29T11:43:18.928Z,100008.42
2018-09-29T11:45:47.254Z,100003.21
2018-09-29T11:48:15.622Z,99999.31
2018-09-29T11:50:44.142Z,99996.29
2018-09-29T11:53:12.594Z,99992.48
2018-09-29T11:55:40.980Z,99984.19
2018-09-29T11:58:12.129Z,99979.47
2018-09-29T12:01:06.628Z,99982.61
2018-09-29T12:03:35.156Z,99980.20
2018-09-29T12:06:03.988Z,99969.48
2018-09-29T12:08:32.400Z,99966.19
2018-09-29T12:11:00.889Z,99960.22
2018-09-29T12:13:29.388Z,99960.11
2018-09-29T12:15:57.912Z,99957.41
2018-09-29T12:18:27.244Z,99947.27
2018-09-29T12:20:55.794Z,99945.29
2018-09-29T12:23:24.128Z,99941.66
2018-09-29T12:25:52.590Z,99931.63
2018-09-29T12:28:21.279Z,99934.13
2018-09-29T12:30:50.099Z,99936.94
2018-09-29T12:33:18.458Z,99932.91
2018-09-29T12:35:47.188Z,99927.42
2018-09-29T12:38:15.571Z,99924.20
2018-09-29T12:40:43.923Z,99917.50
2018-09-29T12:43:12.842Z,99921.39
2018-09-29T12:45:41.222Z,99917.89
2018-09-29T12:48:09.707Z,99911.47
2018-09-29T12:50:38.090Z,99913.91
2018-09-29T12:53:06.468Z,99913.32
2018-09-29T12:55:34.932Z,99905.53
2018-09-29T12:58:03.338Z,99898.62
2018-09-29T13:00:31.688Z,99896.05
2018-09-29T13:03:00.107Z,99889.35
2018-09-29T13:05:28.473Z,99885.18
2018-09-29T13:07:56.803Z,99878.34
2018-09-29T13:10:25.187Z,99881.65
2018-09-29T13:12:53.547Z,99873.91
2018-09-29T13:15:22.183Z,99872.08
2018-09-29T13:17:50.531Z,99871.19
2018-09-29T13:20:18.923Z,99866.90
2018-09-29T13:22:47.427Z,99867.05
2018-09-29T13:25:15.751Z,99863.03
2018-09-29T13:27:44.172Z,99860.84
2018-09-29T13:30:12.557Z,99853.66
2018-09-29T13:32:40.947Z,99848.52
2018-09-29T13:35:09.423Z,99845.84
2018-09-29T13:37:37.762Z,99838.25
2018-09-29T13:40:06.633Z,99843.20
2018-09-29T13:42:35.174Z,99831.00
2018-09-29T13:45:03.586Z,99826.58
2018-09-29T13:47:31.975Z,99821.03
2018-09-29T13:50:00.375Z,99826.63
2018-09-29T13:52:28.787Z,99812.86
2018-09-29T13:54:57.228Z,99811.61
2018-09-29T13:57:25.655Z,99808.25
2018-09-29T13:59:53.986Z,99800.28
2018-09-29T14:02:22.496Z,99797.64
2018-09-29T14:04:50.884Z,99797.51
2018-09-29T14:07:19.311Z,99796.97
2018-09-29T14:09:47.668Z,99795.22
2018-09-29T14:12:16.123Z,99786.52
2018-09-29T14:14:44.864Z,99785.74
2018-09-29T14:17:13.283Z,99782.14
2018-09-29T14:19:41.698Z,99772.88
2018-09-29T14:22:10.220Z,99773.61
2018-09-29T14:24:38.766Z,99771.27
2018-09-29T14:27:07.199Z,99766.80
2018-09-29T14:29:35.558Z,99762.28
2018-09-29T14:32:04.120Z,99754.47
2018-09-29T14:34:32.654Z,99754.50
2018-09-29T14:37:01.411Z,99749.58
2018-09-29T14:39:29.942Z,99751.55
2018-09-29T14:41:58.498Z,99748.13
2018-09-29T14:44:26.941Z,99746.92
2018-09-29T14:46:55.295Z,99745.69
2018-09-29T14:49:23.819Z,99743.45
2018-09-29T14:51:52.292Z,99746.27
2018-09-29T14:54:20.759Z,99741.73
2018-09-29T14:56:49.219Z,99739.66
2018-09-29T14:59:17.587Z,99742.79
2018-09-29T15:01:46.139Z,99740.60
2018-09-29T15:04:14.678Z,99739.78
2018-09-29T15:06:43.201Z,99736.41
2018-09-29T15:09:12.630Z,99730.47
2018-09-29T15:11:41.251Z,99733.38
2018-09-29T15:14:10.391Z,99728.27
2018-09-29T15:16:39.310Z,99727.48
2018-09-29T15:19:07.683Z,99725.92
2018-09-29T15:21:36.160Z,99718.23
2018-09-29T15:24:04.688Z,99712.37
2018-09-29T15:26:33.959Z,99710.91
2018-09-29T15:29:02.799Z,99705.45
2018-09-29T15:31:31.215Z,99701.83
2018-09-29T15:33:59.604Z,99699.70
2018-09-29T15:36:28.035Z,99698.65
2018-09-29T15:38:57.889Z,99692.08
2018-09-29T15:41:26.442Z,99687.70
2018-09-29T15:43:54.979Z,99688.59
2018-09-29T15:46:23.545Z,99686.14
2018-09-29T15:48:52.156Z,99676.05
2018-09-29T15:51:20.506Z,99672.41
2018-09-29T15:53:49.071Z,99670.92
2018-09-29T15:56:17.776Z,99665.84
2018-09-29T15:58:46.272Z,99672.36
2018-09-29T16:01:14.670Z,99671.05
2018-09-29T16:03:43.258Z,99670.04
2018-09-29T16:06:12.092Z,99671.91
2018-09-29T16:08:40.872Z,99668.54
2018-09-29T16:11:09.246Z,99664.89
2018-09-29T16:13:37.611Z,99672.67
2018-09-29T16:16:06.297Z,99670.16
2018-09-29T16:18:34.867Z,99667.11
2018-09-29T16:21:03.271Z,99668.70
2018-09-29T16:23:31.616Z,99665.92
2018-09-29T16:26:00.068Z,99663.72
2018-09-29T16:28:28.432Z,99655.59
2018-09-29T16:30:56.819Z,99656.08
2018-09-29T16:33:25.165Z,99660.45
2018-09-29T16:35:53.526Z,99663.60
2018-09-29T16:38:21.866Z,99660.81
2018-09-29T16:40:50.320Z,99662.48
2018-09-29T16:43:18.844Z,99663.46
2018-09-29T16:45:47.148Z,99659.03
2018-09-29T16:48:15.490Z,99658.26
2018-09-29T16:50:44.023Z,99655.28
2018-09-29T16:53:12.907Z,99656.02
2018-09-29T16:55:41.413Z,99655.98
2018-09-29T16:58:09.886Z,99664.25
2018-09-29T17:00:38.255Z,99665.39
2018-09-29T17:03:06.736Z,99665.42
2018-09-29T17:05:35.072Z,99659.55
2018-09-29T17:08:03.432Z,99655.70
2018-09-29T17:10:31.782Z,99661.12
2018-09-29T17:13:00.123Z,99661.48
2018-09-29T17:15:28.487Z,99662.50
2018-09-29T17:17:56.825Z,99669.88
2018-09-29T17:20:25.157Z,99668.77
2018-09-29T17:22:53.869Z,99664.76
2018-09-29T17:25:22.212Z,99662.73
2018-09-29T17:27:50.561Z,99660.58
2018-09-29T17:30:18.886Z,99653.48
2018-09-29T17:32:47.303Z,99653.44
2018-09-29T17:35:15.670Z,99655.89
2018-09-29T17:37:44.168Z,99660.52
2018-09-29T17:40:12.518Z,99655.65
2018-09-29T17:42:40.851Z,99660.80
2018-09-29T17:45:09.288Z,99660.13
2018-09-29T17:47:37.915Z,99656.77
2018-09-29T17:50:07.439Z,99662.61
2018-09-29T17:52:35.806Z,99656.19
2018-09-29T17:55:04.250Z,99655.56
2018-09-29T17:57:32.590Z,99654.55
2018-09-29T18:00:01.485Z,99651.63
2018-09-29T18:02:29.808Z,99652.31
2018-09-29T18:04:58.351Z,99649.80
2018-09-29T18:07:26.955Z,99658.62
2018-09-29T18:09:55.369Z,99657.53
2018-09-29T18:12:24.411Z,99661.61
2018-09-29T18:14:52.769Z,99658.13
2018-09-29T18:17:21.254Z,99657.66
2018-09-29T18:19:49.692Z,99657.28
2018-09-29T18:22:18.019Z,99645.60
2018-09-29T18:24:46.379Z,99648.94
2018-09-29T18:27:14.833Z,99648.31
2018-09-29T18:29:43.534Z,99654.19
2018-09-29T18:32:11.861Z,99659.11
2018-09-29T18:34:40.207Z,99657.51
2018-09-29T18:37:08.591Z,99649.34
2018-09-29T18:39:37.005Z,99652.00
2018-09-29T18:42:05.324Z,99651.32
2018-09-29T18:44:33.770Z,99652.39
2018-09-29T18:47:02.558Z,99650.37
2018-09-29T18:49:30.965Z,99653.91
2018-09-29T18:51:59.316Z,99653.71
2018-09-29T18:54:27.749Z,99642.16
2018-09-29T18:56:56.287Z,99649.17
2018-09-29T18:59:24.992Z,99648.79
2018-09-29T19:01:53.392Z,99653.59
2018-09-29T19:04:21.743Z,99651.62
2018-09-29T19:06:50.432Z,99658.05
2018-09-29T19:09:18.885Z,99653.32
2018-09-29T19:11:47.349Z,99659.73
2018-09-29T19:14:16.290Z,99657.29
2018-09-29T19:16:44.828Z,99653.25
2018-09-29T19:19:14.190Z,99648.63
2018-09-29T19:21:42.563Z,99654.12
2018-09-29T19:24:11.128Z,99645.64
2018-09-29T19:26:39.490Z,99649.50
2018-09-29T19:29:07.803Z,99652.73
2018-09-29T19:31:36.206Z,99651.19
2018-09-29T19:34:05.212Z,99648.53
2018-09-29T19:36:33.549Z,99642.09
2018-09-29T19:39:02.122Z,99650.17
2018-09-29T19:41:31.152Z,99653.55
2018-09-29T19:43:59.500Z,99645.47
2018-09-29T19:46:28.170Z,99648.08
2018-09-29T19:48:56.890Z,99639.42
2018-09-29T19:51:25.382Z,99648.37
2018-09-29T19:53:53.751Z,99642.94
2018-09-29T19:56:22.134Z,99652.79
2018-09-29T19:58:50.522Z,99647.08
2018-09-29T20:01:18.959Z,99645.84
2018-09-29T20:03:47.666Z,99646.72
2018-09-29T20:06:16.317Z,99648.59
2018-09-29T20:08:44.685Z,99643.41
2018-09-29T20:11:13.354Z,99635.96
2018-09-29T20:13:41.803Z,99634.58
2018-09-29T20:16:12.500Z,99639.50
2018-09-29T20:18:40.898Z,99637.97
2018-09-29T20:21:09.254Z,99634.52
2018-09-29T20:23:37.603Z,99626.20
2018-09-29T20:26:05.975Z,99630.46
2018-09-29T20:28:34.342Z,99627.72
2018-09-29T20:31:02.858Z,99621.48
2018-09-29T20:33:31.247Z,99618.77
2018-09-29T20:35:59.589Z,99619.25
2018-09-29T20:38:27.971Z,99619.02
2018-09-29T20:40:56.395Z,99611.87
2018-09-29T20:43:25.063Z,99607.50
2018-09-29T20:45:53.415Z,99603.79
2018-09-29T20:48:21.793Z,99595.23
2018-09-29T20:50:50.158Z,99589.43
2018-09-29T20:53:18.486Z,99596.66
2018-09-29T20:55:47.053Z,99592.31
2018-09-29T20:58:15.395Z,99590.72
2018-09-29T21:00:43.920Z,99595.16
2018-09-29T21:03:12.329Z,99594.98
2018-09-29T21:05:40.698Z,99594.22
2018-09-29T21:08:09.058Z,99593.66
2018-09-29T21:10:37.513Z,99589.13
2018-09-29T21:13:06.101Z,99581.91
2018-09-29T21:15:34.510Z,99582.80
2018-09-29T21:18:03.043Z,99581.14
2018-09-29T21:20:31.355Z,99573.59
2018-09-29T21:22:59.766Z,99574.80
2018-09-29T21:25:28.083Z,99579.88
2018-09-29T21:27:56.977Z,99574.08
2018-09-29T21:30:45.959Z,99574.02
2018-09-29T21:33:14.324Z,99565.16
2018-09-29T21:35:42.827Z,99569.17
2018-09-29T21:38:12.334Z,99560.55
2018-09-29T21:40:40.731Z,99567.63
2018-09-29T21:43:09.097Z,99568.69
2018-09-29T21:45:37.451Z,99563.25
2018-09-29T21:48:05.835Z,99559.27
2018-09-29T21:50:34.163Z,99565.96
2018-09-29T21:53:02.509Z,99558.00
2018-09-29T21:55:30.812Z,99561.20
2018-09-29T21:57:59.180Z,99561.88
2018-09-29T22:00:32.775Z,99557.62
2018-09-29T22:03:01.128Z,99560.34
2018-09-29T22:05:29.487Z,99554.89
2018-09-29T22:07:57.842Z,99555.78
2018-09-29T22:10:26.142Z,99548.84
2018-09-29T22:12:54.522Z,99539.76
2018-09-29T22:15:22.923Z,99531.11
2018-09-29T22:17:51.536Z,99526.72
2018-09-29T22:20:20.131Z,99520.96
2018-09-29T22:22:48.472Z,99517.67
2018-09-29T22:25:16.883Z,99520.66
2018-09-29T22:27:45.386Z,99519.09
2018-09-29T22:30:13.979Z,99512.31
2018-09-29T22:32:42.315Z,99515.42
2018-09-29T22:35:10.628Z,99507.53
2018-09-29T22:37:38.969Z,99505.36
2018-09-29T22:40:07.467Z,99502.42
2018-09-29T22:42:36.055Z,99499.14
2018-09-29T22:45:04.395Z,99502.92
2018-09-29T22:47:32.863Z,99493.39
2018-09-29T22:50:01.323Z,99490.48
2018-09-29T22:52:29.658Z,99496.62
2018-09-29T22:54:58.038Z,99494.03
2018-09-29T22:57:26.450Z,99482.91
2018-09-29T22:59:54.763Z,99479.45
2018-09-29T23:02:23.132Z,99471.64
2018-09-29T23:04:51.450Z,99472.93
2018-09-29T23:07:19.875Z,99475.05
2018-09-29T23:09:48.207Z,99464.62
2018-09-29T23:12:16.530Z,99458.88
2018-09-29T23:14:44.874Z,99464.33
2018-09-29T23:17:13.228Z,99460.63
2018-09-29T23:19:41.562Z,99460.54
2018-09-29T23:22:09.902Z,99460.23
2018-09-29T23:24:38.244Z,99457.82
2018-09-29T23:27:06.749Z,99460.16
2018-09-29T23:29:35.101Z,99458.63
2018-09-29T23:32:03.434Z,99456.48
2018-09-29T23:34:31.770Z,99456.73
2018-09-29T23:37:00.088Z,99458.02
2018-09-29T23:39:28.415Z,99447.41
2018-09-29T23:41:57.315Z,99459.45
2018-09-29T23:44:25.687Z,99459.13
2018-09-29T23:46:54.035Z,99462.53
2018-09-29T23:49:22.378Z,99464.79
2018-09-29T23:51:50.712Z,99452.77
2018-09-29T23:54:19.073Z,99452.55
2018-09-29T23:56:47.411Z,99449.30
2018-09-29T23:59:15.880Z,99447.11
